aviador You're here:

KVSF Decoded Metar

SPRINGFIELD in VT, USA
Report Time2017-11-23 02:54:00
UTC Time2017-11-23 03:46:49
Flight Rules vfr VFR
WindVRB at 05 kt
Visibility9999 m
Phenomena:N/A
Clouds:Overcast 041 Hf
Expected CloudBase > 3,200 ft AGL from Temp-Dew spread
Ceiling4,100 ft
Temp02°C (ISA -12)
Dew Point-6°C (56% RH)
AAT-2.5°C
QNH1015 hPa
Density Alt-879 ft
Elevation574 ft
Report Wrong Elevation
Raw Report
KVSF 230254Z AUTO VRB05KT 10SM OVC041 02/M06 A2997 RMK AO2 SLP157
60000 T00171061 53009=

Extra information for KVSF:More info

Metar Taf Metar & Taf Last 4 Metars F.Rules Stats Wind Profile Meteogram Temp Stats Airport Information Weather charts Add Link Nearby VenuesMetar ALERT Operation Metar Decoded Social comments

AIRNAV info for KVSF